Time;durP1;ratioP1;P1;durP2;ratioP2;P2;SDS_P1;SDS_P2;PMS_P1;PMS_P2;Temp;Humidity;BMP_temperature;BMP_pressure;BME280_temperature;BME280_humidity;BME280_pressure;Samples;Min_cycle;Max_cycle;Signal;HPM_P1;HPM_P2
2023/12/29 00:01:14;;;;;;;141.73;53.83;;;;;;;;;;4918510;29;21014;-71
2023/12/29 00:03:39;;;;;;;140.47;56.00;;;;;;;;;;4923986;29;20253;-73
2023/12/29 00:06:04;;;;;;;178.03;71.00;;;;;;;;;;4924329;29;20304;-73
2023/12/29 00:08:30;;;;;;;162.23;62.27;;;;;;;;;;4924524;29;20392;-73
2023/12/29 00:10:55;;;;;;;179.80;69.37;;;;;;;;;;4906041;29;20240;-72
2023/12/29 00:13:23;;;;;;;188.63;74.30;;;;;;;;;;4913028;29;20225;-72
2023/12/29 00:15:52;;;;;;;220.17;81.47;;;;;;;;;;4924466;29;20741;-72
2023/12/29 00:18:17;;;;;;;238.77;91.00;;;;;;;;;;4905391;29;20229;-73
2023/12/29 00:20:43;;;;;;;230.70;90.20;;;;;;;;;;4911849;29;20226;-70
2023/12/29 00:23:08;;;;;;;194.70;72.80;;;;;;;;;;4924481;29;20393;-73
2023/12/29 00:25:39;;;;;;;203.17;77.23;;;;;;;;;;4925840;29;20222;-72
2023/12/29 00:28:05;;;;;;;217.50;83.23;;;;;;;;;;4925413;29;20232;-71
2023/12/29 00:30:30;;;;;;;222.53;84.57;;;;;;;;;;4924782;29;20222;-73
2023/12/29 00:32:56;;;;;;;212.13;83.87;;;;;;;;;;4924149;29;20228;-73
2023/12/29 00:35:21;;;;;;;199.67;75.90;;;;;;;;;;4905089;29;20226;-73
2023/12/29 00:37:46;;;;;;;199.77;76.60;;;;;;;;;;4904565;29;20225;-72
2023/12/29 00:40:12;;;;;;;164.07;64.93;;;;;;;;;;4923588;29;20280;-73
2023/12/29 00:42:37;;;;;;;166.63;65.17;;;;;;;;;;4925219;29;20741;-73
2023/12/29 00:45:03;;;;;;;161.90;61.50;;;;;;;;;;4911449;29;20244;-73
2023/12/29 00:47:28;;;;;;;155.73;58.70;;;;;;;;;;4912003;29;20846;-74
2023/12/29 00:49:53;;;;;;;147.07;57.37;;;;;;;;;;4928867;29;20213;-73
2023/12/29 00:52:19;;;;;;;150.73;57.73;;;;;;;;;;4929475;29;20230;-75
2023/12/29 00:54:44;;;;;;;143.47;57.33;;;;;;;;;;4929133;29;20787;-74
2023/12/29 00:57:09;;;;;;;141.97;56.27;;;;;;;;;;4927829;29;20746;-73
2023/12/29 00:59:36;;;;;;;143.23;56.90;;;;;;;;;;4911656;29;21126;-73
2023/12/29 01:02:02;;;;;;;141.70;56.20;;;;;;;;;;4926310;29;20241;-72
2023/12/29 01:04:27;;;;;;;140.73;57.67;;;;;;;;;;4924230;29;20289;-71
2023/12/29 01:06:53;;;;;;;144.93;56.93;;;;;;;;;;4926585;29;20323;-72
2023/12/29 01:09:19;;;;;;;146.33;56.60;;;;;;;;;;4928147;29;20229;-71
2023/12/29 01:11:44;;;;;;;143.17;56.60;;;;;;;;;;4927507;29;20232;-72
2023/12/29 01:14:09;;;;;;;153.70;59.07;;;;;;;;;;4926675;29;20272;-72
2023/12/29 01:16:35;;;;;;;141.70;56.53;;;;;;;;;;4928275;29;20830;-71
2023/12/29 01:19:00;;;;;;;163.50;61.73;;;;;;;;;;4910844;29;20248;-72
2023/12/29 01:21:26;;;;;;;159.03;59.90;;;;;;;;;;4925922;29;20221;-71
2023/12/29 01:23:51;;;;;;;154.17;60.27;;;;;;;;;;4910741;29;20249;-72
2023/12/29 01:26:16;;;;;;;174.33;66.10;;;;;;;;;;4927751;29;20217;-73
2023/12/29 01:28:42;;;;;;;174.13;69.23;;;;;;;;;;4927003;29;20293;-72
2023/12/29 01:31:08;;;;;;;182.10;70.27;;;;;;;;;;4925686;29;20222;-73
2023/12/29 01:33:34;;;;;;;183.63;69.77;;;;;;;;;;4925468;29;20233;-73
2023/12/29 01:38:43;;;;;;;204.67;76.93;;;;;;;;;;4927722;29;20228;-72
2023/12/29 01:41:08;;;;;;;196.53;74.03;;;;;;;;;;4927660;29;20233;-72
2023/12/29 01:43:34;;;;;;;206.93;79.50;;;;;;;;;;4926605;29;20241;-73
2023/12/29 01:45:59;;;;;;;235.57;85.93;;;;;;;;;;4927879;29;20651;-73
2023/12/29 01:48:24;;;;;;;213.10;83.30;;;;;;;;;;4927208;29;20253;-73
2023/12/29 01:50:50;;;;;;;206.97;81.17;;;;;;;;;;4925533;29;20236;-74
2023/12/29 01:53:15;;;;;;;196.23;73.70;;;;;;;;;;4925775;29;20240;-73
2023/12/29 01:55:40;;;;;;;185.37;75.37;;;;;;;;;;4926318;29;20320;-73
2023/12/29 01:58:05;;;;;;;203.30;78.07;;;;;;;;;;4926853;29;20233;-73
2023/12/29 02:00:31;;;;;;;187.53;72.97;;;;;;;;;;4927623;29;20229;-72
2023/12/29 02:02:57;;;;;;;179.97;72.63;;;;;;;;;;4927254;29;20624;-72
2023/12/29 02:05:22;;;;;;;195.27;77.97;;;;;;;;;;4926534;29;20264;-73
2023/12/29 02:07:47;;;;;;;181.20;70.47;;;;;;;;;;4926635;29;20245;-72
2023/12/29 02:10:15;;;;;;;178.47;68.73;;;;;;;;;;4924827;29;20952;-72
2023/12/29 02:12:41;;;;;;;173.70;68.93;;;;;;;;;;4910310;29;20234;-72
2023/12/29 02:15:06;;;;;;;159.90;64.43;;;;;;;;;;4925200;29;20233;-73
2023/12/29 02:17:35;;;;;;;179.57;68.33;;;;;;;;;;4926231;29;20241;-72
2023/12/29 02:20:00;;;;;;;182.30;69.70;;;;;;;;;;4925589;29;20315;-73
2023/12/29 02:22:26;;;;;;;181.40;71.07;;;;;;;;;;4910024;29;20271;-72
2023/12/29 02:24:51;;;;;;;173.47;67.97;;;;;;;;;;4925514;29;20936;-74
2023/12/29 02:27:39;;;;;;;184.97;69.90;;;;;;;;;;4926318;29;20221;-73
2023/12/29 02:30:09;;;;;;;176.83;69.33;;;;;;;;;;4927085;29;20623;-73
2023/12/29 02:32:34;;;;;;;181.43;69.30;;;;;;;;;;4927711;29;20239;-73
2023/12/29 02:35:00;;;;;;;190.70;72.70;;;;;;;;;;4925405;29;20741;-72
2023/12/29 02:37:26;;;;;;;190.50;73.07;;;;;;;;;;4925850;29;20228;-72
2023/12/29 02:39:51;;;;;;;191.43;75.37;;;;;;;;;;4926474;29;20336;-73
2023/12/29 02:42:16;;;;;;;190.23;74.57;;;;;;;;;;4908827;29;20689;-73
2023/12/29 02:44:42;;;;;;;212.07;80.83;;;;;;;;;;4909537;29;20265;-72
2023/12/29 02:47:07;;;;;;;204.20;77.67;;;;;;;;;;4924853;29;20233;-72
2023/12/29 02:49:32;;;;;;;174.13;67.50;;;;;;;;;;4919662;29;20240;-73
2023/12/29 02:51:58;;;;;;;164.93;62.53;;;;;;;;;;4907600;29;20234;-74
2023/12/29 02:54:23;;;;;;;155.97;58.00;;;;;;;;;;4924777;29;20920;-72
2023/12/29 02:56:48;;;;;;;152.33;57.83;;;;;;;;;;4925169;29;20217;-74
2023/12/29 02:59:14;;;;;;;155.53;58.67;;;;;;;;;;4924884;29;20249;-72
2023/12/29 03:01:39;;;;;;;148.20;56.63;;;;;;;;;;4924204;29;20223;-73
2023/12/29 03:04:04;;;;;;;152.27;58.83;;;;;;;;;;4922664;29;20818;-72
2023/12/29 03:06:29;;;;;;;159.03;60.03;;;;;;;;;;4924017;29;20928;-73
2023/12/29 03:08:55;;;;;;;155.83;57.83;;;;;;;;;;4923107;29;20226;-72
2023/12/29 03:11:20;;;;;;;144.77;56.43;;;;;;;;;;4922300;29;20225;-73
2023/12/29 03:13:45;;;;;;;156.17;56.50;;;;;;;;;;4924190;29;20232;-72
2023/12/29 03:16:11;;;;;;;149.33;55.87;;;;;;;;;;4925017;29;20667;-72
2023/12/29 03:18:39;;;;;;;146.07;54.83;;;;;;;;;;4924617;29;20728;-73
2023/12/29 03:21:05;;;;;;;130.30;51.73;;;;;;;;;;4923416;29;20249;-73
2023/12/29 03:23:30;;;;;;;136.93;52.33;;;;;;;;;;4908209;29;20267;-72
2023/12/29 03:25:55;;;;;;;138.30;51.60;;;;;;;;;;4921673;29;20217;-73
2023/12/29 03:28:21;;;;;;;123.23;50.00;;;;;;;;;;4925093;29;20717;-73
2023/12/29 03:30:46;;;;;;;132.07;48.97;;;;;;;;;;4923562;29;20605;-73
2023/12/29 03:33:11;;;;;;;119.20;47.70;;;;;;;;;;4913079;29;20231;-72
2023/12/29 03:35:37;;;;;;;123.40;48.53;;;;;;;;;;4922071;29;20850;-74
2023/12/29 03:38:02;;;;;;;136.57;51.70;;;;;;;;;;4923622;29;20229;-74
2023/12/29 03:40:27;;;;;;;130.63;52.93;;;;;;;;;;4924019;29;20332;-72
2023/12/29 03:42:53;;;;;;;144.97;56.70;;;;;;;;;;4898099;29;20335;-73
2023/12/29 03:45:18;;;;;;;152.70;58.03;;;;;;;;;;4923908;29;20313;-71
2023/12/29 03:47:43;;;;;;;140.20;55.40;;;;;;;;;;4923777;29;20297;-71
2023/12/29 03:50:09;;;;;;;132.27;52.27;;;;;;;;;;4922640;29;20226;-72
2023/12/29 03:52:34;;;;;;;141.83;54.17;;;;;;;;;;4925386;29;20222;-73
2023/12/29 03:55:00;;;;;;;134.60;51.70;;;;;;;;;;4922987;29;20229;-72
2023/12/29 03:57:25;;;;;;;130.73;53.83;;;;;;;;;;4915459;29;20221;-71
2023/12/29 03:59:50;;;;;;;128.90;51.47;;;;;;;;;;4922806;29;20237;-72
2023/12/29 04:02:17;;;;;;;134.50;53.80;;;;;;;;;;4923856;29;20292;-74
2023/12/29 04:04:42;;;;;;;142.20;54.33;;;;;;;;;;4922541;29;20251;-72
2023/12/29 04:07:08;;;;;;;134.73;55.10;;;;;;;;;;4925105;29;20929;-72
2023/12/29 04:09:33;;;;;;;142.03;56.07;;;;;;;;;;4925347;29;20308;-71
2023/12/29 04:11:58;;;;;;;149.73;57.60;;;;;;;;;;4923925;29;20225;-72
2023/12/29 04:14:24;;;;;;;147.53;57.73;;;;;;;;;;4926045;29;20229;-71
2023/12/29 04:16:49;;;;;;;157.87;59.50;;;;;;;;;;4927613;29;20232;-72
2023/12/29 04:19:14;;;;;;;152.60;59.17;;;;;;;;;;4922369;29;20225;-72
2023/12/29 04:21:40;;;;;;;143.93;56.47;;;;;;;;;;4910204;29;20325;-72
2023/12/29 04:24:05;;;;;;;136.30;55.93;;;;;;;;;;4911072;29;20328;-71
2023/12/29 04:26:35;;;;;;;145.50;55.73;;;;;;;;;;4927272;29;20221;-72
2023/12/29 04:29:00;;;;;;;146.63;55.33;;;;;;;;;;4926377;29;20236;-73
2023/12/29 04:31:25;;;;;;;141.80;55.07;;;;;;;;;;4928962;29;20213;-73
2023/12/29 04:33:51;;;;;;;141.70;54.97;;;;;;;;;;4925857;29;20233;-72
2023/12/29 04:36:16;;;;;;;138.70;54.60;;;;;;;;;;4926632;29;20229;-73
2023/12/29 04:38:41;;;;;;;150.97;55.90;;;;;;;;;;4926347;29;20864;-73
2023/12/29 04:41:07;;;;;;;138.77;54.43;;;;;;;;;;4926949;29;20832;-72
2023/12/29 04:43:32;;;;;;;129.40;50.27;;;;;;;;;;4928587;29;20982;-72
2023/12/29 04:45:58;;;;;;;135.33;50.20;;;;;;;;;;4928949;29;20743;-73
2023/12/29 04:48:23;;;;;;;118.17;47.40;;;;;;;;;;4927947;29;20222;-72
2023/12/29 04:50:48;;;;;;;122.70;46.90;;;;;;;;;;4927078;29;20232;-73
2023/12/29 04:53:13;;;;;;;118.60;45.70;;;;;;;;;;4902469;29;20237;-71
2023/12/29 04:55:39;;;;;;;112.50;43.87;;;;;;;;;;4927614;29;20715;-72
2023/12/29 04:58:04;;;;;;;120.60;44.70;;;;;;;;;;4928024;29;20611;-72
2023/12/29 05:00:29;;;;;;;112.80;44.33;;;;;;;;;;4928682;29;20240;-72
2023/12/29 05:02:55;;;;;;;115.77;43.67;;;;;;;;;;4909957;29;20782;-70
2023/12/29 05:05:20;;;;;;;110.93;43.93;;;;;;;;;;4929397;29;20224;-70
2023/12/29 05:07:46;;;;;;;110.67;43.10;;;;;;;;;;4927250;29;20316;-70
2023/12/29 05:10:11;;;;;;;110.67;44.13;;;;;;;;;;4928117;29;20233;-70
2023/12/29 05:12:36;;;;;;;105.80;41.30;;;;;;;;;;4929535;29;20221;-69
2023/12/29 05:15:02;;;;;;;106.33;42.13;;;;;;;;;;4926624;29;20310;-70
2023/12/29 05:17:27;;;;;;;107.37;42.90;;;;;;;;;;4911328;29;20356;-71
2023/12/29 05:19:53;;;;;;;107.90;40.60;;;;;;;;;;4910816;29;20225;-70
2023/12/29 05:22:18;;;;;;;97.57;38.37;;;;;;;;;;4927452;29;20270;-69
2023/12/29 05:24:45;;;;;;;101.13;40.83;;;;;;;;;;4926868;29;20355;-70
2023/12/29 05:27:10;;;;;;;107.37;40.83;;;;;;;;;;4927396;29;20236;-71
2023/12/29 05:29:35;;;;;;;104.23;40.00;;;;;;;;;;4910899;29;20225;-70
2023/12/29 05:32:02;;;;;;;101.57;40.27;;;;;;;;;;4910561;29;20230;-71
2023/12/29 05:34:27;;;;;;;101.53;39.83;;;;;;;;;;4927497;29;20233;-70
2023/12/29 05:36:53;;;;;;;101.80;39.53;;;;;;;;;;4928028;29;20799;-70
2023/12/29 05:39:18;;;;;;;106.77;39.57;;;;;;;;;;4927860;29;20635;-69
2023/12/29 05:41:43;;;;;;;111.83;42.37;;;;;;;;;;4924664;29;20264;-70
2023/12/29 05:44:09;;;;;;;107.47;40.63;;;;;;;;;;4921196;29;20242;-70
2023/12/29 05:46:34;;;;;;;113.63;40.17;;;;;;;;;;4925559;29;20228;-69
2023/12/29 05:49:00;;;;;;;105.90;40.70;;;;;;;;;;4909041;29;20232;-69
2023/12/29 05:51:25;;;;;;;104.10;41.03;;;;;;;;;;4928026;29;20221;-70
2023/12/29 05:53:50;;;;;;;118.07;41.30;;;;;;;;;;4909366;29;20610;-70
2023/12/29 05:56:16;;;;;;;113.70;41.27;;;;;;;;;;4921603;29;20222;-70
2023/12/29 05:58:44;;;;;;;107.37;41.00;;;;;;;;;;4925072;29;20264;-70
2023/12/29 06:01:09;;;;;;;108.43;41.77;;;;;;;;;;4910203;29;20299;-72
2023/12/29 06:03:35;;;;;;;104.60;42.07;;;;;;;;;;4925159;29;20241;-71
2023/12/29 06:06:00;;;;;;;113.77;42.77;;;;;;;;;;4907930;29;20233;-71
2023/12/29 06:08:25;;;;;;;104.50;40.83;;;;;;;;;;4910216;29;20240;-71
2023/12/29 06:10:51;;;;;;;103.77;40.93;;;;;;;;;;4925326;29;20257;-71
2023/12/29 06:13:16;;;;;;;107.87;40.30;;;;;;;;;;4924429;29;20284;-71
2023/12/29 06:15:41;;;;;;;111.10;41.60;;;;;;;;;;4927083;29;20228;-71
2023/12/29 06:18:07;;;;;;;109.43;41.20;;;;;;;;;;4908717;29;20716;-70
2023/12/29 06:20:32;;;;;;;114.40;42.63;;;;;;;;;;4926465;29;20280;-68
2023/12/29 06:22:57;;;;;;;104.37;41.13;;;;;;;;;;4910696;29;20253;-70
2023/12/29 06:25:23;;;;;;;113.90;41.60;;;;;;;;;;4926452;29;20705;-70
2023/12/29 06:27:48;;;;;;;109.83;41.47;;;;;;;;;;4925848;29;20297;-70
2023/12/29 06:30:14;;;;;;;108.43;41.67;;;;;;;;;;4925483;29;20875;-70
2023/12/29 06:32:39;;;;;;;110.50;42.13;;;;;;;;;;4925577;29;20288;-69
2023/12/29 06:35:05;;;;;;;103.97;40.03;;;;;;;;;;4907855;29;20233;-70
2023/12/29 06:37:31;;;;;;;104.87;39.87;;;;;;;;;;4909146;29;20226;-72
2023/12/29 06:39:56;;;;;;;112.23;42.10;;;;;;;;;;4925494;29;20929;-70
2023/12/29 06:42:22;;;;;;;105.10;41.90;;;;;;;;;;4922327;29;20257;-70
2023/12/29 06:44:48;;;;;;;103.33;42.23;;;;;;;;;;4926837;29;20233;-70
2023/12/29 06:47:13;;;;;;;111.93;42.63;;;;;;;;;;4922545;29;20596;-69
2023/12/29 06:49:38;;;;;;;109.20;44.07;;;;;;;;;;4923507;29;20234;-70
2023/12/29 06:52:04;;;;;;;115.37;44.93;;;;;;;;;;4908243;29;20613;-70
2023/12/29 06:54:29;;;;;;;113.07;45.43;;;;;;;;;;4924205;29;20279;-69
2023/12/29 06:56:55;;;;;;;118.10;46.37;;;;;;;;;;4926595;29;20232;-69
2023/12/29 06:59:20;;;;;;;116.77;46.53;;;;;;;;;;4925287;29;20234;-69
2023/12/29 07:01:46;;;;;;;113.00;45.93;;;;;;;;;;4926447;29;20253;-70
2023/12/29 07:04:12;;;;;;;111.13;45.53;;;;;;;;;;4907911;29;20240;-70
2023/12/29 07:06:37;;;;;;;105.07;44.70;;;;;;;;;;4908561;29;21061;-70
2023/12/29 07:09:02;;;;;;;107.83;44.80;;;;;;;;;;4898468;29;20876;-71
2023/12/29 07:11:28;;;;;;;107.53;43.07;;;;;;;;;;4908674;29;20916;-72
2023/12/29 07:13:54;;;;;;;110.90;45.17;;;;;;;;;;4917222;29;20244;-72
2023/12/29 07:16:20;;;;;;;109.90;44.97;;;;;;;;;;4896079;29;20805;-70
2023/12/29 07:18:46;;;;;;;108.93;44.43;;;;;;;;;;4913593;29;20220;-72
2023/12/29 07:21:12;;;;;;;113.97;45.47;;;;;;;;;;4921640;29;20749;-72
2023/12/29 07:23:37;;;;;;;117.50;44.67;;;;;;;;;;4907042;29;20230;-73
2023/12/29 07:26:03;;;;;;;117.17;44.90;;;;;;;;;;4923803;29;20233;-72
2023/12/29 07:28:28;;;;;;;118.10;45.67;;;;;;;;;;4923351;29;20224;-71
2023/12/29 07:30:53;;;;;;;115.00;45.33;;;;;;;;;;4908223;29;20257;-73
2023/12/29 07:33:19;;;;;;;118.90;46.00;;;;;;;;;;4926471;29;20249;-73
2023/12/29 07:35:44;;;;;;;112.47;46.07;;;;;;;;;;4898811;29;20229;-73
2023/12/29 07:38:09;;;;;;;103.43;43.23;;;;;;;;;;4907417;29;20304;-73
2023/12/29 07:40:35;;;;;;;116.37;45.10;;;;;;;;;;4924621;29;20248;-72
2023/12/29 07:43:00;;;;;;;112.20;45.97;;;;;;;;;;4925819;29;20296;-73
2023/12/29 07:45:26;;;;;;;108.70;44.37;;;;;;;;;;4924997;29;20221;-73
2023/12/29 07:47:51;;;;;;;119.77;46.67;;;;;;;;;;4920357;29;20266;-73
2023/12/29 07:50:16;;;;;;;121.63;47.77;;;;;;;;;;4925023;29;20233;-73
2023/12/29 07:52:42;;;;;;;113.17;46.57;;;;;;;;;;4924308;29;20225;-73
2023/12/29 07:55:08;;;;;;;118.00;46.00;;;;;;;;;;4924480;29;20233;-73
2023/12/29 07:57:33;;;;;;;112.73;45.73;;;;;;;;;;4925926;29;20715;-73
2023/12/29 07:59:58;;;;;;;123.47;46.87;;;;;;;;;;4907953;29;20237;-72
2023/12/29 08:02:24;;;;;;;114.97;46.43;;;;;;;;;;4907095;29;20292;-73
2023/12/29 08:04:49;;;;;;;109.37;45.20;;;;;;;;;;4926081;29;20233;-72
2023/12/29 08:07:14;;;;;;;106.70;44.30;;;;;;;;;;4925555;29;20296;-73
2023/12/29 08:09:40;;;;;;;111.30;43.60;;;;;;;;;;4923655;29;20316;-73
2023/12/29 08:12:05;;;;;;;114.43;45.57;;;;;;;;;;4925321;29;20232;-73
2023/12/29 08:14:31;;;;;;;115.00;44.97;;;;;;;;;;4926239;29;20765;-72
2023/12/29 08:16:59;;;;;;;109.10;42.73;;;;;;;;;;4907482;29;20280;-73
2023/12/29 08:19:24;;;;;;;112.40;43.10;;;;;;;;;;4925529;29;20316;-73
2023/12/29 08:21:50;;;;;;;106.17;43.17;;;;;;;;;;4925261;29;20396;-72
2023/12/29 08:24:16;;;;;;;100.33;41.67;;;;;;;;;;4923606;29;20238;-73
2023/12/29 08:26:48;;;;;;;104.40;41.83;;;;;;;;;;4923437;29;20213;-72
2023/12/29 08:29:14;;;;;;;98.30;40.50;;;;;;;;;;4904265;29;20237;-73
2023/12/29 08:31:39;;;;;;;103.60;40.20;;;;;;;;;;4888589;29;20218;-74
2023/12/29 08:34:04;;;;;;;102.93;40.03;;;;;;;;;;4904767;29;20744;-74
2023/12/29 08:36:30;;;;;;;100.70;42.00;;;;;;;;;;4905001;29;20225;-74
2023/12/29 08:38:56;;;;;;;96.27;40.97;;;;;;;;;;4888854;29;20742;-74
2023/12/29 08:41:22;;;;;;;97.60;40.60;;;;;;;;;;4889257;29;20229;-73
2023/12/29 08:43:47;;;;;;;120.37;49.93;;;;;;;;;;4890639;29;20234;-73
2023/12/29 08:46:12;;;;;;;102.50;42.67;;;;;;;;;;4904873;29;20234;-73
2023/12/29 08:48:38;;;;;;;98.93;42.97;;;;;;;;;;4905013;29;20218;-74
2023/12/29 08:51:03;;;;;;;103.80;43.80;;;;;;;;;;4904724;29;20237;-73
2023/12/29 08:53:31;;;;;;;103.90;43.23;;;;;;;;;;4905818;29;20226;-73
2023/12/29 08:55:56;;;;;;;90.23;41.67;;;;;;;;;;4904363;29;20254;-72
2023/12/29 08:58:21;;;;;;;94.73;40.37;;;;;;;;;;4906476;29;20317;-72
2023/12/29 09:00:47;;;;;;;90.40;39.73;;;;;;;;;;4905282;29;20227;-72
2023/12/29 09:03:12;;;;;;;96.10;39.77;;;;;;;;;;4895678;29;20237;-72
2023/12/29 09:05:38;;;;;;;99.30;40.00;;;;;;;;;;4892687;29;20237;-72
2023/12/29 09:08:04;;;;;;;93.23;41.33;;;;;;;;;;4908247;29;20245;-73
2023/12/29 09:10:29;;;;;;;100.43;41.47;;;;;;;;;;4908929;29;20222;-73
2023/12/29 09:12:55;;;;;;;99.97;42.23;;;;;;;;;;4909002;29;20369;-72
2023/12/29 09:15:20;;;;;;;96.47;41.67;;;;;;;;;;4911079;29;20257;-72
2023/12/29 09:17:45;;;;;;;99.13;42.73;;;;;;;;;;4913733;29;20308;-73
2023/12/29 09:20:11;;;;;;;104.43;43.13;;;;;;;;;;4913109;29;20666;-72
2023/12/29 09:22:36;;;;;;;103.63;44.13;;;;;;;;;;4893544;29;20265;-73
2023/12/29 09:25:02;;;;;;;110.37;45.43;;;;;;;;;;4917483;29;20715;-73
2023/12/29 09:27:27;;;;;;;120.47;48.80;;;;;;;;;;4927071;29;20617;-74
2023/12/29 09:29:52;;;;;;;106.67;45.70;;;;;;;;;;4928178;29;20236;-73
2023/12/29 09:32:18;;;;;;;103.17;44.77;;;;;;;;;;4927577;29;20311;-73
2023/12/29 09:34:43;;;;;;;107.50;45.20;;;;;;;;;;4926714;29;20249;-73
2023/12/29 09:37:08;;;;;;;104.60;43.73;;;;;;;;;;4927725;29;20377;-73
2023/12/29 09:39:34;;;;;;;99.10;43.03;;;;;;;;;;4910796;29;20222;-72
2023/12/29 09:42:03;;;;;;;101.10;46.57;;;;;;;;;;4910142;29;20222;-72
2023/12/29 09:44:28;;;;;;;134.80;54.57;;;;;;;;;;4926789;29;20234;-73
2023/12/29 09:46:54;;;;;;;140.27;60.43;;;;;;;;;;4931432;29;20869;-73
2023/12/29 09:49:19;;;;;;;140.70;62.03;;;;;;;;;;4926166;29;20245;-74
2023/12/29 09:51:45;;;;;;;135.00;60.53;;;;;;;;;;4927932;29;20251;-74
2023/12/29 09:54:10;;;;;;;128.60;54.77;;;;;;;;;;4925837;29;20248;-74
2023/12/29 09:56:36;;;;;;;118.70;51.97;;;;;;;;;;4926329;29;20607;-73
2023/12/29 09:59:01;;;;;;;112.17;50.27;;;;;;;;;;4925279;29;20292;-74
2023/12/29 10:01:29;;;;;;;107.87;47.37;;;;;;;;;;4926631;29;20275;-74
2023/12/29 10:03:54;;;;;;;105.33;46.13;;;;;;;;;;4926104;29;20249;-74
2023/12/29 10:06:21;;;;;;;101.80;45.03;;;;;;;;;;4925969;29;20771;-74
2023/12/29 10:08:46;;;;;;;101.43;45.23;;;;;;;;;;4926369;29;20225;-74
2023/12/29 10:11:12;;;;;;;94.30;42.73;;;;;;;;;;4907450;29;20734;-73
2023/12/29 10:13:38;;;;;;;93.30;41.53;;;;;;;;;;4909785;29;20229;-74
2023/12/29 10:16:05;;;;;;;92.47;40.23;;;;;;;;;;4908682;29;20337;-73
2023/12/29 10:18:38;;;;;;;89.70;40.03;;;;;;;;;;4925839;29;20229;-73
2023/12/29 10:21:03;;;;;;;90.87;40.17;;;;;;;;;;4926165;29;20225;-73
2023/12/29 10:23:49;;;;;;;85.27;39.53;;;;;;;;;;4927427;29;20757;-72
2023/12/29 10:26:15;;;;;;;90.03;39.73;;;;;;;;;;4914246;29;20227;-73
2023/12/29 10:28:40;;;;;;;90.40;40.37;;;;;;;;;;4927079;29;20225;-72
2023/12/29 10:31:05;;;;;;;93.53;41.00;;;;;;;;;;4925396;29;20742;-71
2023/12/29 10:33:32;;;;;;;89.17;41.27;;;;;;;;;;4926438;29;20244;-71
2023/12/29 10:36:01;;;;;;;94.80;41.00;;;;;;;;;;4925157;29;20230;-73
2023/12/29 10:38:27;;;;;;;91.53;39.83;;;;;;;;;;4924913;29;20230;-71
2023/12/29 10:40:52;;;;;;;89.63;39.97;;;;;;;;;;4921942;29;20234;-73
2023/12/29 10:43:24;;;;;;;88.37;40.23;;;;;;;;;;4907921;29;20924;-73
2023/12/29 10:45:49;;;;;;;88.57;39.83;;;;;;;;;;4898213;29;20838;-72
2023/12/29 10:48:24;;;;;;;90.93;39.73;;;;;;;;;;4927061;29;20229;-72
2023/12/29 10:50:49;;;;;;;88.60;39.90;;;;;;;;;;4925939;29;20255;-72
2023/12/29 10:53:16;;;;;;;87.63;39.20;;;;;;;;;;4927106;29;20782;-72
2023/12/29 10:55:42;;;;;;;85.90;41.97;;;;;;;;;;4925560;29;20255;-73
2023/12/29 10:58:07;;;;;;;100.07;41.37;;;;;;;;;;4909231;29;20719;-73
2023/12/29 11:00:32;;;;;;;91.53;40.47;;;;;;;;;;4909547;29;20283;-73
2023/12/29 11:02:58;;;;;;;98.83;41.83;;;;;;;;;;4926031;29;20248;-73
2023/12/29 11:05:26;;;;;;;98.13;44.20;;;;;;;;;;4925597;29;20320;-72
2023/12/29 11:07:54;;;;;;;97.77;43.77;;;;;;;;;;4925436;29;20268;-72
2023/12/29 11:10:20;;;;;;;93.87;43.77;;;;;;;;;;4925249;29;20233;-73
2023/12/29 11:12:45;;;;;;;97.93;44.10;;;;;;;;;;4925300;29;20289;-73
2023/12/29 11:15:10;;;;;;;109.73;47.20;;;;;;;;;;4924296;29;20237;-73
2023/12/29 11:17:36;;;;;;;98.67;45.50;;;;;;;;;;4925385;29;20224;-73
2023/12/29 11:20:02;;;;;;;95.30;45.67;;;;;;;;;;4908474;29;20241;-72
2023/12/29 11:22:31;;;;;;;97.23;45.53;;;;;;;;;;4925662;29;20917;-73
2023/12/29 11:24:59;;;;;;;98.10;45.13;;;;;;;;;;4924678;29;20257;-73
2023/12/29 11:27:29;;;;;;;108.27;45.93;;;;;;;;;;4925490;29;20217;-71
2023/12/29 11:29:55;;;;;;;102.80;44.80;;;;;;;;;;4919701;29;20233;-73
2023/12/29 11:32:21;;;;;;;97.03;43.70;;;;;;;;;;4929653;29;20280;-73
2023/12/29 11:34:51;;;;;;;93.53;41.37;;;;;;;;;;4925543;29;20229;-73
2023/12/29 11:37:23;;;;;;;84.17;40.43;;;;;;;;;;4925811;29;20226;-73
2023/12/29 11:39:50;;;;;;;97.13;40.87;;;;;;;;;;4924812;29;20260;-73
2023/12/29 11:42:23;;;;;;;91.87;41.70;;;;;;;;;;4899010;29;20230;-74
2023/12/29 11:44:50;;;;;;;89.10;40.63;;;;;;;;;;4924037;29;20241;-74
2023/12/29 11:47:36;;;;;;;86.57;41.57;;;;;;;;;;4925879;29;20225;-73
2023/12/29 11:50:02;;;;;;;89.27;41.27;;;;;;;;;;4923159;29;20308;-73
2023/12/29 11:52:37;;;;;;;87.43;41.10;;;;;;;;;;4906753;29;20369;-72
2023/12/29 11:55:11;;;;;;;86.23;39.93;;;;;;;;;;4906973;29;20925;-73
2023/12/29 11:57:38;;;;;;;79.93;38.40;;;;;;;;;;4908372;29;20280;-73
2023/12/29 12:00:05;;;;;;;80.87;37.10;;;;;;;;;;4923074;29;20315;-73
2023/12/29 12:02:30;;;;;;;81.53;38.97;;;;;;;;;;4907909;29;20225;-73
2023/12/29 12:04:56;;;;;;;80.90;37.40;;;;;;;;;;4923142;29;20252;-73
2023/12/29 12:07:21;;;;;;;78.80;37.20;;;;;;;;;;4923658;29;20237;-74
2023/12/29 12:09:49;;;;;;;85.10;37.70;;;;;;;;;;4926733;29;20673;-73
2023/12/29 12:12:14;;;;;;;80.10;37.63;;;;;;;;;;4924068;29;20255;-73
2023/12/29 12:14:50;;;;;;;77.23;36.17;;;;;;;;;;4924610;29;20647;-74
2023/12/29 12:17:29;;;;;;;74.70;37.03;;;;;;;;;;4924061;29;20236;-74
2023/12/29 12:19:58;;;;;;;77.33;36.70;;;;;;;;;;4923376;29;20240;-73
2023/12/29 12:22:23;;;;;;;79.33;38.13;;;;;;;;;;4925263;29;20227;-73
2023/12/29 12:24:49;;;;;;;75.83;36.33;;;;;;;;;;4907157;29;20606;-73
2023/12/29 12:27:15;;;;;;;78.10;36.87;;;;;;;;;;4906922;29;20222;-72
2023/12/29 12:29:40;;;;;;;75.47;37.23;;;;;;;;;;4923664;29;20328;-72
2023/12/29 12:32:07;;;;;;;78.87;38.20;;;;;;;;;;4907232;29;20923;-72
2023/12/29 12:34:39;;;;;;;91.30;39.93;;;;;;;;;;4924278;29;20316;-73
2023/12/29 12:37:04;;;;;;;82.80;39.00;;;;;;;;;;4925392;29;20225;-73
2023/12/29 12:39:40;;;;;;;89.70;40.50;;;;;;;;;;4911816;29;20225;-72
2023/12/29 12:42:05;;;;;;;84.90;40.40;;;;;;;;;;4902463;29;20319;-72
2023/12/29 12:44:30;;;;;;;86.57;39.17;;;;;;;;;;4929194;29;20332;-72
2023/12/29 12:46:57;;;;;;;93.00;39.63;;;;;;;;;;4927012;29;20233;-73
2023/12/29 12:49:22;;;;;;;89.80;40.10;;;;;;;;;;4911170;29;20312;-72
2023/12/29 12:51:48;;;;;;;86.07;39.67;;;;;;;;;;4927102;29;20264;-73
2023/12/29 12:54:13;;;;;;;83.87;39.67;;;;;;;;;;4928118;29;20225;-72
2023/12/29 12:56:41;;;;;;;86.20;39.83;;;;;;;;;;4926878;29;20308;-72
2023/12/29 12:59:06;;;;;;;87.10;39.67;;;;;;;;;;4900796;29;20767;-73
2023/12/29 13:01:35;;;;;;;92.70;41.43;;;;;;;;;;4926765;29;20390;-73
2023/12/29 13:04:00;;;;;;;85.97;39.67;;;;;;;;;;4900343;29;20292;-73
2023/12/29 13:06:26;;;;;;;82.70;38.07;;;;;;;;;;4926785;29;20218;-72
2023/12/29 13:08:51;;;;;;;85.50;40.37;;;;;;;;;;4926618;29;20226;-73
2023/12/29 13:11:25;;;;;;;85.00;40.07;;;;;;;;;;4927420;29;20229;-73
2023/12/29 13:13:56;;;;;;;85.50;39.07;;;;;;;;;;4926072;29;21058;-74
2023/12/29 13:16:42;;;;;;;86.67;39.23;;;;;;;;;;4927169;29;20242;-73
2023/12/29 13:19:20;;;;;;;81.00;38.70;;;;;;;;;;4924682;29;20221;-72
2023/12/29 13:21:48;;;;;;;88.77;39.87;;;;;;;;;;4927348;29;20692;-72
2023/12/29 13:24:15;;;;;;;86.00;39.13;;;;;;;;;;4926605;29;20256;-73
2023/12/29 13:26:42;;;;;;;84.17;39.40;;;;;;;;;;4927825;29;20222;-72
2023/12/29 13:29:07;;;;;;;83.87;39.00;;;;;;;;;;4910123;29;20790;-72
2023/12/29 13:31:32;;;;;;;79.17;38.03;;;;;;;;;;4910055;29;20214;-73
2023/12/29 13:33:59;;;;;;;81.00;38.23;;;;;;;;;;4917034;29;20854;-73
2023/12/29 13:36:27;;;;;;;88.80;39.10;;;;;;;;;;4926730;29;20296;-72
2023/12/29 13:38:54;;;;;;;89.60;39.03;;;;;;;;;;4924874;29;20224;-73
2023/12/29 13:41:19;;;;;;;76.93;36.33;;;;;;;;;;4925639;29;20225;-73
2023/12/29 13:43:45;;;;;;;83.20;35.90;;;;;;;;;;4931325;29;20237;-73
2023/12/29 13:46:11;;;;;;;78.07;37.90;;;;;;;;;;4912336;29;20233;-72
2023/12/29 13:48:36;;;;;;;90.23;39.77;;;;;;;;;;4926518;29;20221;-72
2023/12/29 13:51:01;;;;;;;92.67;38.80;;;;;;;;;;4919345;29;20307;-72
2023/12/29 13:53:27;;;;;;;90.27;39.83;;;;;;;;;;4927097;29;20225;-72
2023/12/29 13:55:52;;;;;;;81.60;36.93;;;;;;;;;;4927632;29;20231;-73
2023/12/29 13:58:17;;;;;;;84.07;37.73;;;;;;;;;;4928432;29;20223;-72
2023/12/29 14:00:43;;;;;;;86.03;39.00;;;;;;;;;;4927910;29;20316;-73
2023/12/29 14:03:26;;;;;;;89.70;40.00;;;;;;;;;;4926740;29;20241;-72
2023/12/29 14:05:52;;;;;;;95.57;40.70;;;;;;;;;;4926639;29;20388;-72